sensor_id;sensor_type;location;lat;lon;timestamp;P1;durP1;ratioP1;P2;durP2;ratioP2
24153;SDS011;12312;53.362;-1.518;2023-12-20T00:02:01;7.63;;;2.45;;
24153;SDS011;12312;53.362;-1.518;2023-12-20T00:04:46;12.82;;;1.80;;
24153;SDS011;12312;53.362;-1.518;2023-12-20T00:07:30;9.20;;;2.08;;
24153;SDS011;12312;53.362;-1.518;2023-12-20T00:10:14;4.88;;;1.58;;
24153;SDS011;12312;53.362;-1.518;2023-12-20T00:12:58;9.30;;;2.13;;
24153;SDS011;12312;53.362;-1.518;2023-12-20T00:15:42;10.52;;;1.80;;
24153;SDS011;12312;53.362;-1.518;2023-12-20T00:18:26;8.52;;;1.38;;
24153;SDS011;12312;53.362;-1.518;2023-12-20T00:21:10;6.65;;;1.45;;
24153;SDS011;12312;53.362;-1.518;2023-12-20T00:23:54;9.00;;;1.85;;
24153;SDS011;12312;53.362;-1.518;2023-12-20T00:26:38;9.57;;;2.28;;
24153;SDS011;12312;53.362;-1.518;2023-12-20T00:29:22;10.18;;;1.80;;
24153;SDS011;12312;53.362;-1.518;2023-12-20T00:32:06;8.15;;;1.83;;
24153;SDS011;12312;53.362;-1.518;2023-12-20T00:34:50;7.45;;;1.30;;
24153;SDS011;12312;53.362;-1.518;2023-12-20T00:37:34;7.45;;;1.35;;
24153;SDS011;12312;53.362;-1.518;2023-12-20T00:40:18;5.47;;;1.98;;
24153;SDS011;12312;53.362;-1.518;2023-12-20T00:43:02;12.65;;;1.60;;
24153;SDS011;12312;53.362;-1.518;2023-12-20T00:45:47;6.15;;;1.50;;
24153;SDS011;12312;53.362;-1.518;2023-12-20T00:48:30;8.77;;;1.45;;
24153;SDS011;12312;53.362;-1.518;2023-12-20T00:51:14;8.73;;;1.88;;
24153;SDS011;12312;53.362;-1.518;2023-12-20T00:53:58;7.63;;;2.15;;
24153;SDS011;12312;53.362;-1.518;2023-12-20T00:56:42;9.73;;;2.13;;
24153;SDS011;12312;53.362;-1.518;2023-12-20T00:59:26;4.80;;;1.55;;
24153;SDS011;12312;53.362;-1.518;2023-12-20T01:02:10;11.18;;;1.65;;
24153;SDS011;12312;53.362;-1.518;2023-12-20T01:04:54;13.95;;;1.50;;
24153;SDS011;12312;53.362;-1.518;2023-12-20T01:07:38;4.45;;;1.20;;
24153;SDS011;12312;53.362;-1.518;2023-12-20T01:10:22;5.97;;;1.65;;
24153;SDS011;12312;53.362;-1.518;2023-12-20T01:13:06;10.40;;;2.00;;
24153;SDS011;12312;53.362;-1.518;2023-12-20T01:15:52;7.50;;;1.45;;
24153;SDS011;12312;53.362;-1.518;2023-12-20T01:18:36;5.60;;;1.75;;
24153;SDS011;12312;53.362;-1.518;2023-12-20T01:21:20;12.00;;;1.40;;
24153;SDS011;12312;53.362;-1.518;2023-12-20T01:24:05;7.43;;;1.40;;
24153;SDS011;12312;53.362;-1.518;2023-12-20T01:26:49;8.98;;;1.70;;
24153;SDS011;12312;53.362;-1.518;2023-12-20T01:29:33;6.40;;;1.77;;
24153;SDS011;12312;53.362;-1.518;2023-12-20T01:32:16;8.50;;;1.90;;
24153;SDS011;12312;53.362;-1.518;2023-12-20T01:35:00;12.75;;;2.45;;
24153;SDS011;12312;53.362;-1.518;2023-12-20T01:37:45;10.60;;;2.17;;
24153;SDS011;12312;53.362;-1.518;2023-12-20T01:40:29;8.60;;;1.65;;
24153;SDS011;12312;53.362;-1.518;2023-12-20T01:43:13;9.20;;;1.90;;
24153;SDS011;12312;53.362;-1.518;2023-12-20T01:45:57;8.45;;;1.88;;
24153;SDS011;12312;53.362;-1.518;2023-12-20T01:48:41;6.65;;;2.13;;
24153;SDS011;12312;53.362;-1.518;2023-12-20T01:51:26;6.40;;;1.42;;
24153;SDS011;12312;53.362;-1.518;2023-12-20T01:54:11;6.03;;;1.67;;
24153;SDS011;12312;53.362;-1.518;2023-12-20T01:56:56;6.22;;;1.70;;
24153;SDS011;12312;53.362;-1.518;2023-12-20T01:59:40;4.80;;;1.35;;
24153;SDS011;12312;53.362;-1.518;2023-12-20T02:02:24;12.20;;;1.85;;
24153;SDS011;12312;53.362;-1.518;2023-12-20T02:05:11;7.25;;;1.55;;
24153;SDS011;12312;53.362;-1.518;2023-12-20T02:07:56;8.10;;;1.73;;
24153;SDS011;12312;53.362;-1.518;2023-12-20T02:10:41;9.07;;;2.00;;
24153;SDS011;12312;53.362;-1.518;2023-12-20T02:13:25;4.38;;;1.90;;
24153;SDS011;12312;53.362;-1.518;2023-12-20T02:16:10;10.27;;;2.40;;
24153;SDS011;12312;53.362;-1.518;2023-12-20T02:18:54;9.02;;;1.88;;
24153;SDS011;12312;53.362;-1.518;2023-12-20T02:21:38;8.70;;;2.08;;
24153;SDS011;12312;53.362;-1.518;2023-12-20T02:24:22;6.30;;;1.90;;
24153;SDS011;12312;53.362;-1.518;2023-12-20T02:27:06;11.80;;;1.90;;
24153;SDS011;12312;53.362;-1.518;2023-12-20T02:29:51;10.77;;;1.98;;
24153;SDS011;12312;53.362;-1.518;2023-12-20T02:32:34;7.93;;;2.13;;
24153;SDS011;12312;53.362;-1.518;2023-12-20T02:35:18;12.13;;;1.85;;
24153;SDS011;12312;53.362;-1.518;2023-12-20T02:38:02;12.43;;;2.28;;
24153;SDS011;12312;53.362;-1.518;2023-12-20T02:40:47;8.93;;;1.88;;
24153;SDS011;12312;53.362;-1.518;2023-12-20T02:43:31;8.90;;;2.08;;
24153;SDS011;12312;53.362;-1.518;2023-12-20T02:46:15;12.68;;;2.08;;
24153;SDS011;12312;53.362;-1.518;2023-12-20T02:49:00;13.32;;;2.50;;
24153;SDS011;12312;53.362;-1.518;2023-12-20T02:51:44;9.05;;;1.83;;
24153;SDS011;12312;53.362;-1.518;2023-12-20T02:54:28;8.63;;;1.73;;
24153;SDS011;12312;53.362;-1.518;2023-12-20T02:57:12;13.55;;;2.08;;
24153;SDS011;12312;53.362;-1.518;2023-12-20T02:59:56;7.13;;;1.77;;
24153;SDS011;12312;53.362;-1.518;2023-12-20T03:02:40;4.07;;;0.98;;
24153;SDS011;12312;53.362;-1.518;2023-12-20T03:05:24;11.25;;;1.70;;
24153;SDS011;12312;53.362;-1.518;2023-12-20T03:08:08;8.23;;;1.67;;
24153;SDS011;12312;53.362;-1.518;2023-12-20T03:10:52;12.25;;;1.63;;
24153;SDS011;12312;53.362;-1.518;2023-12-20T03:13:37;9.60;;;1.60;;
24153;SDS011;12312;53.362;-1.518;2023-12-20T03:16:21;6.75;;;1.60;;
24153;SDS011;12312;53.362;-1.518;2023-12-20T03:19:05;16.38;;;1.88;;
24153;SDS011;12312;53.362;-1.518;2023-12-20T03:21:49;9.07;;;1.48;;
24153;SDS011;12312;53.362;-1.518;2023-12-20T03:24:33;6.05;;;1.85;;
24153;SDS011;12312;53.362;-1.518;2023-12-20T03:27:17;5.47;;;1.05;;
24153;SDS011;12312;53.362;-1.518;2023-12-20T03:30:00;5.60;;;2.22;;
24153;SDS011;12312;53.362;-1.518;2023-12-20T03:32:45;11.35;;;1.60;;
24153;SDS011;12312;53.362;-1.518;2023-12-20T03:35:29;5.53;;;1.50;;
24153;SDS011;12312;53.362;-1.518;2023-12-20T03:38:13;4.38;;;1.50;;
24153;SDS011;12312;53.362;-1.518;2023-12-20T03:40:57;5.53;;;1.70;;
24153;SDS011;12312;53.362;-1.518;2023-12-20T03:43:41;6.00;;;1.80;;
24153;SDS011;12312;53.362;-1.518;2023-12-20T03:46:25;5.10;;;1.48;;
24153;SDS011;12312;53.362;-1.518;2023-12-20T03:49:09;8.88;;;1.63;;
24153;SDS011;12312;53.362;-1.518;2023-12-20T03:51:53;10.23;;;2.03;;
24153;SDS011;12312;53.362;-1.518;2023-12-20T03:54:37;2.40;;;1.17;;
24153;SDS011;12312;53.362;-1.518;2023-12-20T03:57:21;12.88;;;1.98;;
24153;SDS011;12312;53.362;-1.518;2023-12-20T04:00:05;9.40;;;2.28;;
24153;SDS011;12312;53.362;-1.518;2023-12-20T04:02:54;5.75;;;1.45;;
24153;SDS011;12312;53.362;-1.518;2023-12-20T04:05:38;7.32;;;1.77;;
24153;SDS011;12312;53.362;-1.518;2023-12-20T04:08:22;8.85;;;2.15;;
24153;SDS011;12312;53.362;-1.518;2023-12-20T04:11:05;14.30;;;1.98;;
24153;SDS011;12312;53.362;-1.518;2023-12-20T04:13:49;9.02;;;1.70;;
24153;SDS011;12312;53.362;-1.518;2023-12-20T04:16:34;9.43;;;2.00;;
24153;SDS011;12312;53.362;-1.518;2023-12-20T04:19:18;11.10;;;1.83;;
24153;SDS011;12312;53.362;-1.518;2023-12-20T04:22:02;8.98;;;1.73;;
24153;SDS011;12312;53.362;-1.518;2023-12-20T04:24:46;3.97;;;1.30;;
24153;SDS011;12312;53.362;-1.518;2023-12-20T04:27:30;10.13;;;1.63;;
24153;SDS011;12312;53.362;-1.518;2023-12-20T04:30:14;9.07;;;1.33;;
24153;SDS011;12312;53.362;-1.518;2023-12-20T04:32:58;4.32;;;1.42;;
24153;SDS011;12312;53.362;-1.518;2023-12-20T04:35:42;5.45;;;1.50;;
24153;SDS011;12312;53.362;-1.518;2023-12-20T04:38:26;8.88;;;1.83;;
24153;SDS011;12312;53.362;-1.518;2023-12-20T04:41:10;5.15;;;1.08;;
24153;SDS011;12312;53.362;-1.518;2023-12-20T04:43:54;7.00;;;1.13;;
24153;SDS011;12312;53.362;-1.518;2023-12-20T04:46:38;6.55;;;1.10;;
24153;SDS011;12312;53.362;-1.518;2023-12-20T04:49:22;5.50;;;1.40;;
24153;SDS011;12312;53.362;-1.518;2023-12-20T04:52:06;12.82;;;2.00;;
24153;SDS011;12312;53.362;-1.518;2023-12-20T04:54:50;5.72;;;1.35;;
24153;SDS011;12312;53.362;-1.518;2023-12-20T04:57:35;6.50;;;1.05;;
24153;SDS011;12312;53.362;-1.518;2023-12-20T05:00:18;3.28;;;1.05;;
24153;SDS011;12312;53.362;-1.518;2023-12-20T05:03:02;5.85;;;1.65;;
24153;SDS011;12312;53.362;-1.518;2023-12-20T05:05:47;5.97;;;1.35;;
24153;SDS011;12312;53.362;-1.518;2023-12-20T05:08:31;5.60;;;1.67;;
24153;SDS011;12312;53.362;-1.518;2023-12-20T05:11:15;4.90;;;1.25;;
24153;SDS011;12312;53.362;-1.518;2023-12-20T05:13:59;6.97;;;1.60;;
24153;SDS011;12312;53.362;-1.518;2023-12-20T05:16:43;5.70;;;1.63;;
24153;SDS011;12312;53.362;-1.518;2023-12-20T05:19:27;11.38;;;2.22;;
24153;SDS011;12312;53.362;-1.518;2023-12-20T05:22:11;5.85;;;1.38;;
24153;SDS011;12312;53.362;-1.518;2023-12-20T05:24:55;14.20;;;1.55;;
24153;SDS011;12312;53.362;-1.518;2023-12-20T05:27:39;7.80;;;1.30;;
24153;SDS011;12312;53.362;-1.518;2023-12-20T05:30:24;2.33;;;1.50;;
24153;SDS011;12312;53.362;-1.518;2023-12-20T05:33:07;4.70;;;1.55;;
24153;SDS011;12312;53.362;-1.518;2023-12-20T05:35:52;9.98;;;1.52;;
24153;SDS011;12312;53.362;-1.518;2023-12-20T05:38:36;7.38;;;1.98;;
24153;SDS011;12312;53.362;-1.518;2023-12-20T05:41:21;6.05;;;1.25;;
24153;SDS011;12312;53.362;-1.518;2023-12-20T05:44:05;5.07;;;1.20;;
24153;SDS011;12312;53.362;-1.518;2023-12-20T05:46:49;2.55;;;1.00;;
24153;SDS011;12312;53.362;-1.518;2023-12-20T05:49:33;6.18;;;0.98;;
24153;SDS011;12312;53.362;-1.518;2023-12-20T05:52:17;8.35;;;1.50;;
24153;SDS011;12312;53.362;-1.518;2023-12-20T05:55:01;6.93;;;1.42;;
24153;SDS011;12312;53.362;-1.518;2023-12-20T05:57:45;7.13;;;1.65;;
24153;SDS011;12312;53.362;-1.518;2023-12-20T06:00:29;10.27;;;1.27;;
24153;SDS011;12312;53.362;-1.518;2023-12-20T06:03:13;10.52;;;1.58;;
24153;SDS011;12312;53.362;-1.518;2023-12-20T06:05:57;5.63;;;1.15;;
24153;SDS011;12312;53.362;-1.518;2023-12-20T06:08:41;10.60;;;1.02;;
24153;SDS011;12312;53.362;-1.518;2023-12-20T06:11:27;4.55;;;1.38;;
24153;SDS011;12312;53.362;-1.518;2023-12-20T06:14:11;3.60;;;1.52;;
24153;SDS011;12312;53.362;-1.518;2023-12-20T06:16:55;6.65;;;1.10;;
24153;SDS011;12312;53.362;-1.518;2023-12-20T06:19:39;8.30;;;1.10;;
24153;SDS011;12312;53.362;-1.518;2023-12-20T06:22:23;7.90;;;1.00;;
24153;SDS011;12312;53.362;-1.518;2023-12-20T06:25:07;6.45;;;1.20;;
24153;SDS011;12312;53.362;-1.518;2023-12-20T06:27:52;8.73;;;1.70;;
24153;SDS011;12312;53.362;-1.518;2023-12-20T06:30:36;4.75;;;1.98;;
24153;SDS011;12312;53.362;-1.518;2023-12-20T06:33:20;7.82;;;1.25;;
24153;SDS011;12312;53.362;-1.518;2023-12-20T06:38:50;4.78;;;1.02;;
24153;SDS011;12312;53.362;-1.518;2023-12-20T06:41:34;2.92;;;1.08;;
24153;SDS011;12312;53.362;-1.518;2023-12-20T06:44:18;4.18;;;1.10;;
24153;SDS011;12312;53.362;-1.518;2023-12-20T06:47:02;4.40;;;0.75;;
24153;SDS011;12312;53.362;-1.518;2023-12-20T06:49:46;4.97;;;1.10;;
24153;SDS011;12312;53.362;-1.518;2023-12-20T06:52:30;7.07;;;1.63;;
24153;SDS011;12312;53.362;-1.518;2023-12-20T06:55:14;6.07;;;1.88;;
24153;SDS011;12312;53.362;-1.518;2023-12-20T06:57:58;11.98;;;1.83;;
24153;SDS011;12312;53.362;-1.518;2023-12-20T07:00:42;8.60;;;1.42;;
24153;SDS011;12312;53.362;-1.518;2023-12-20T07:03:26;7.13;;;1.13;;
24153;SDS011;12312;53.362;-1.518;2023-12-20T07:06:10;6.25;;;1.98;;
24153;SDS011;12312;53.362;-1.518;2023-12-20T07:08:54;4.18;;;1.00;;
24153;SDS011;12312;53.362;-1.518;2023-12-20T07:11:38;4.05;;;0.75;;
24153;SDS011;12312;53.362;-1.518;2023-12-20T07:14:22;7.13;;;1.20;;
24153;SDS011;12312;53.362;-1.518;2023-12-20T07:17:06;10.32;;;1.60;;
24153;SDS011;12312;53.362;-1.518;2023-12-20T07:19:55;4.00;;;1.40;;
24153;SDS011;12312;53.362;-1.518;2023-12-20T07:22:39;3.35;;;1.30;;
24153;SDS011;12312;53.362;-1.518;2023-12-20T07:25:23;4.40;;;1.52;;
24153;SDS011;12312;53.362;-1.518;2023-12-20T07:28:07;2.85;;;0.68;;
24153;SDS011;12312;53.362;-1.518;2023-12-20T07:30:51;8.02;;;1.40;;
24153;SDS011;12312;53.362;-1.518;2023-12-20T07:33:35;6.68;;;1.58;;
24153;SDS011;12312;53.362;-1.518;2023-12-20T07:36:19;8.90;;;1.17;;
24153;SDS011;12312;53.362;-1.518;2023-12-20T07:39:03;3.70;;;0.90;;
24153;SDS011;12312;53.362;-1.518;2023-12-20T07:41:47;8.10;;;0.90;;
24153;SDS011;12312;53.362;-1.518;2023-12-20T07:44:31;2.25;;;0.90;;
24153;SDS011;12312;53.362;-1.518;2023-12-20T07:47:15;7.07;;;1.27;;
24153;SDS011;12312;53.362;-1.518;2023-12-20T07:50:03;10.35;;;1.45;;
24153;SDS011;12312;53.362;-1.518;2023-12-20T07:52:47;6.82;;;1.38;;
24153;SDS011;12312;53.362;-1.518;2023-12-20T07:55:31;10.52;;;1.02;;
24153;SDS011;12312;53.362;-1.518;2023-12-20T07:58:15;5.43;;;0.95;;
24153;SDS011;12312;53.362;-1.518;2023-12-20T08:00:59;5.22;;;1.10;;
24153;SDS011;12312;53.362;-1.518;2023-12-20T08:03:43;5.95;;;1.45;;
24153;SDS011;12312;53.362;-1.518;2023-12-20T08:06:27;7.75;;;1.42;;
24153;SDS011;12312;53.362;-1.518;2023-12-20T08:09:11;6.07;;;1.48;;
24153;SDS011;12312;53.362;-1.518;2023-12-20T08:11:54;6.80;;;1.30;;
24153;SDS011;12312;53.362;-1.518;2023-12-20T08:14:38;4.93;;;1.10;;
24153;SDS011;12312;53.362;-1.518;2023-12-20T08:17:22;6.78;;;1.48;;
24153;SDS011;12312;53.362;-1.518;2023-12-20T08:20:07;4.35;;;1.13;;
24153;SDS011;12312;53.362;-1.518;2023-12-20T08:22:51;6.93;;;1.23;;
24153;SDS011;12312;53.362;-1.518;2023-12-20T08:25:35;2.97;;;1.00;;
24153;SDS011;12312;53.362;-1.518;2023-12-20T08:28:19;5.50;;;1.38;;
24153;SDS011;12312;53.362;-1.518;2023-12-20T08:31:03;4.18;;;0.98;;
24153;SDS011;12312;53.362;-1.518;2023-12-20T08:33:48;6.00;;;1.13;;
24153;SDS011;12312;53.362;-1.518;2023-12-20T08:36:32;9.10;;;1.10;;
24153;SDS011;12312;53.362;-1.518;2023-12-20T08:39:16;5.07;;;1.25;;
24153;SDS011;12312;53.362;-1.518;2023-12-20T08:42:00;3.10;;;0.98;;
24153;SDS011;12312;53.362;-1.518;2023-12-20T08:44:44;5.07;;;1.23;;
24153;SDS011;12312;53.362;-1.518;2023-12-20T08:47:28;0.93;;;0.55;;
24153;SDS011;12312;53.362;-1.518;2023-12-20T08:50:12;5.43;;;1.00;;
24153;SDS011;12312;53.362;-1.518;2023-12-20T08:52:57;6.97;;;1.73;;
24153;SDS011;12312;53.362;-1.518;2023-12-20T08:55:41;5.80;;;1.00;;
24153;SDS011;12312;53.362;-1.518;2023-12-20T08:58:25;5.90;;;1.15;;
24153;SDS011;12312;53.362;-1.518;2023-12-20T09:01:09;6.70;;;1.20;;
24153;SDS011;12312;53.362;-1.518;2023-12-20T09:03:53;6.75;;;0.80;;
24153;SDS011;12312;53.362;-1.518;2023-12-20T09:06:37;5.47;;;1.08;;
24153;SDS011;12312;53.362;-1.518;2023-12-20T09:09:21;7.75;;;1.30;;
24153;SDS011;12312;53.362;-1.518;2023-12-20T09:12:05;7.20;;;1.35;;
24153;SDS011;12312;53.362;-1.518;2023-12-20T09:14:50;4.50;;;1.10;;
24153;SDS011;12312;53.362;-1.518;2023-12-20T09:17:35;5.47;;;1.27;;
24153;SDS011;12312;53.362;-1.518;2023-12-20T09:20:19;5.43;;;1.00;;
24153;SDS011;12312;53.362;-1.518;2023-12-20T09:23:03;5.78;;;1.02;;
24153;SDS011;12312;53.362;-1.518;2023-12-20T09:25:47;3.47;;;1.05;;
24153;SDS011;12312;53.362;-1.518;2023-12-20T09:28:31;7.05;;;1.08;;
24153;SDS011;12312;53.362;-1.518;2023-12-20T09:31:20;3.42;;;0.60;;
24153;SDS011;12312;53.362;-1.518;2023-12-20T09:34:04;1.77;;;0.65;;
24153;SDS011;12312;53.362;-1.518;2023-12-20T09:36:48;4.50;;;0.93;;
24153;SDS011;12312;53.362;-1.518;2023-12-20T09:39:32;3.25;;;0.73;;
24153;SDS011;12312;53.362;-1.518;2023-12-20T09:42:18;4.97;;;0.82;;
24153;SDS011;12312;53.362;-1.518;2023-12-20T09:45:09;4.32;;;0.65;;
24153;SDS011;12312;53.362;-1.518;2023-12-20T09:47:56;2.65;;;0.52;;
24153;SDS011;12312;53.362;-1.518;2023-12-20T09:50:41;4.47;;;0.88;;
24153;SDS011;12312;53.362;-1.518;2023-12-20T09:53:26;3.60;;;0.80;;
24153;SDS011;12312;53.362;-1.518;2023-12-20T09:56:13;1.75;;;0.70;;
24153;SDS011;12312;53.362;-1.518;2023-12-20T09:58:58;2.15;;;0.70;;
24153;SDS011;12312;53.362;-1.518;2023-12-20T10:01:43;2.10;;;0.82;;
24153;SDS011;12312;53.362;-1.518;2023-12-20T10:04:28;4.13;;;0.68;;
24153;SDS011;12312;53.362;-1.518;2023-12-20T10:07:15;2.00;;;0.75;;
24153;SDS011;12312;53.362;-1.518;2023-12-20T10:09:59;0.40;;;0.40;;
24153;SDS011;12312;53.362;-1.518;2023-12-20T10:13:01;4.28;;;0.93;;
24153;SDS011;12312;53.362;-1.518;2023-12-20T10:15:47;1.90;;;0.50;;
24153;SDS011;12312;53.362;-1.518;2023-12-20T10:18:33;0.65;;;0.52;;
24153;SDS011;12312;53.362;-1.518;2023-12-20T10:21:17;2.28;;;0.60;;
24153;SDS011;12312;53.362;-1.518;2023-12-20T10:24:01;1.17;;;0.40;;
24153;SDS011;12312;53.362;-1.518;2023-12-20T10:26:46;6.82;;;0.98;;
24153;SDS011;12312;53.362;-1.518;2023-12-20T10:29:33;0.90;;;0.45;;
24153;SDS011;12312;53.362;-1.518;2023-12-20T10:32:23;3.50;;;0.60;;
24153;SDS011;12312;53.362;-1.518;2023-12-20T10:35:08;0.75;;;0.65;;
24153;SDS011;12312;53.362;-1.518;2023-12-20T10:37:55;1.23;;;0.60;;
24153;SDS011;12312;53.362;-1.518;2023-12-20T10:40:40;0.40;;;0.40;;
24153;SDS011;12312;53.362;-1.518;2023-12-20T10:43:25;0.30;;;0.30;;
24153;SDS011;12312;53.362;-1.518;2023-12-20T10:46:11;2.50;;;0.65;;
24153;SDS011;12312;53.362;-1.518;2023-12-20T10:48:56;1.23;;;0.50;;
24153;SDS011;12312;53.362;-1.518;2023-12-20T10:51:41;0.50;;;0.50;;
24153;SDS011;12312;53.362;-1.518;2023-12-20T10:54:26;0.32;;;0.30;;
24153;SDS011;12312;53.362;-1.518;2023-12-20T10:57:10;0.25;;;0.25;;
24153;SDS011;12312;53.362;-1.518;2023-12-20T10:59:55;0.25;;;0.25;;
24153;SDS011;12312;53.362;-1.518;2023-12-20T11:02:44;0.40;;;0.40;;
24153;SDS011;12312;53.362;-1.518;2023-12-20T11:08:15;0.50;;;0.50;;
24153;SDS011;12312;53.362;-1.518;2023-12-20T11:11:09;0.90;;;0.60;;
24153;SDS011;12312;53.362;-1.518;2023-12-20T11:13:58;5.47;;;1.13;;
24153;SDS011;12312;53.362;-1.518;2023-12-20T11:16:46;5.68;;;1.15;;
24153;SDS011;12312;53.362;-1.518;2023-12-20T11:19:29;3.13;;;1.10;;
24153;SDS011;12312;53.362;-1.518;2023-12-20T11:22:14;3.45;;;1.33;;
24153;SDS011;12312;53.362;-1.518;2023-12-20T11:25:07;3.28;;;0.88;;
24153;SDS011;12312;53.362;-1.518;2023-12-20T11:28:09;2.58;;;0.85;;
24153;SDS011;12312;53.362;-1.518;2023-12-20T11:30:54;1.85;;;1.02;;
24153;SDS011;12312;53.362;-1.518;2023-12-20T11:33:40;5.57;;;1.15;;
24153;SDS011;12312;53.362;-1.518;2023-12-20T11:36:24;5.90;;;1.02;;
24153;SDS011;12312;53.362;-1.518;2023-12-20T11:39:09;4.38;;;0.93;;
24153;SDS011;12312;53.362;-1.518;2023-12-20T11:41:54;3.30;;;1.27;;
24153;SDS011;12312;53.362;-1.518;2023-12-20T11:44:40;4.82;;;1.17;;
24153;SDS011;12312;53.362;-1.518;2023-12-20T11:47:26;9.15;;;1.77;;
24153;SDS011;12312;53.362;-1.518;2023-12-20T11:50:10;7.30;;;1.98;;
24153;SDS011;12312;53.362;-1.518;2023-12-20T11:52:55;4.63;;;1.38;;
24153;SDS011;12312;53.362;-1.518;2023-12-20T11:55:39;11.60;;;2.15;;
24153;SDS011;12312;53.362;-1.518;2023-12-20T11:58:22;10.52;;;1.88;;
24153;SDS011;12312;53.362;-1.518;2023-12-20T12:01:06;7.03;;;1.88;;
24153;SDS011;12312;53.362;-1.518;2023-12-20T12:04:06;7.80;;;1.67;;
24153;SDS011;12312;53.362;-1.518;2023-12-20T12:06:50;8.40;;;1.70;;
24153;SDS011;12312;53.362;-1.518;2023-12-20T12:09:34;5.43;;;1.52;;
24153;SDS011;12312;53.362;-1.518;2023-12-20T12:12:19;3.42;;;1.08;;
24153;SDS011;12312;53.362;-1.518;2023-12-20T12:15:03;7.22;;;1.17;;
24153;SDS011;12312;53.362;-1.518;2023-12-20T12:17:55;6.38;;;1.35;;
24153;SDS011;12312;53.362;-1.518;2023-12-20T12:20:40;5.13;;;1.33;;
24153;SDS011;12312;53.362;-1.518;2023-12-20T12:23:24;6.75;;;1.52;;
24153;SDS011;12312;53.362;-1.518;2023-12-20T12:26:08;3.80;;;1.08;;
24153;SDS011;12312;53.362;-1.518;2023-12-20T12:28:53;6.25;;;1.10;;
24153;SDS011;12312;53.362;-1.518;2023-12-20T12:31:37;7.38;;;1.02;;
24153;SDS011;12312;53.362;-1.518;2023-12-20T12:34:23;7.20;;;0.95;;
24153;SDS011;12312;53.362;-1.518;2023-12-20T12:37:07;1.77;;;0.80;;
24153;SDS011;12312;53.362;-1.518;2023-12-20T12:39:54;3.70;;;1.23;;
24153;SDS011;12312;53.362;-1.518;2023-12-20T12:42:39;6.22;;;1.20;;
24153;SDS011;12312;53.362;-1.518;2023-12-20T12:45:24;5.00;;;0.68;;
24153;SDS011;12312;53.362;-1.518;2023-12-20T12:48:08;8.55;;;1.20;;
24153;SDS011;12312;53.362;-1.518;2023-12-20T12:50:52;4.40;;;1.00;;
24153;SDS011;12312;53.362;-1.518;2023-12-20T12:53:37;2.72;;;0.90;;
24153;SDS011;12312;53.362;-1.518;2023-12-20T12:56:21;2.20;;;0.77;;
24153;SDS011;12312;53.362;-1.518;2023-12-20T12:59:05;7.22;;;1.02;;
24153;SDS011;12312;53.362;-1.518;2023-12-20T13:01:49;7.13;;;1.10;;
24153;SDS011;12312;53.362;-1.518;2023-12-20T13:04:33;3.90;;;1.13;;
24153;SDS011;12312;53.362;-1.518;2023-12-20T13:07:17;3.58;;;0.90;;
24153;SDS011;12312;53.362;-1.518;2023-12-20T13:10:01;4.60;;;1.10;;
24153;SDS011;12312;53.362;-1.518;2023-12-20T13:12:47;1.00;;;0.50;;
24153;SDS011;12312;53.362;-1.518;2023-12-20T13:15:31;2.08;;;0.50;;
24153;SDS011;12312;53.362;-1.518;2023-12-20T13:18:15;5.72;;;0.75;;
24153;SDS011;12312;53.362;-1.518;2023-12-20T13:21:00;2.50;;;0.50;;
24153;SDS011;12312;53.362;-1.518;2023-12-20T13:23:43;3.38;;;0.52;;
24153;SDS011;12312;53.362;-1.518;2023-12-20T13:26:27;1.77;;;0.57;;
24153;SDS011;12312;53.362;-1.518;2023-12-20T13:29:12;3.63;;;1.02;;
24153;SDS011;12312;53.362;-1.518;2023-12-20T13:31:56;2.55;;;0.90;;
24153;SDS011;12312;53.362;-1.518;2023-12-20T13:34:41;1.95;;;0.65;;
24153;SDS011;12312;53.362;-1.518;2023-12-20T13:37:25;5.97;;;0.98;;
24153;SDS011;12312;53.362;-1.518;2023-12-20T13:40:09;5.45;;;0.77;;
24153;SDS011;12312;53.362;-1.518;2023-12-20T13:42:54;4.78;;;0.80;;
24153;SDS011;12312;53.362;-1.518;2023-12-20T13:45:38;3.88;;;1.05;;
24153;SDS011;12312;53.362;-1.518;2023-12-20T13:48:22;5.30;;;1.00;;
24153;SDS011;12312;53.362;-1.518;2023-12-20T13:51:06;4.03;;;0.90;;
24153;SDS011;12312;53.362;-1.518;2023-12-20T13:53:50;4.82;;;0.93;;
24153;SDS011;12312;53.362;-1.518;2023-12-20T13:56:34;1.75;;;0.82;;
24153;SDS011;12312;53.362;-1.518;2023-12-20T13:59:18;4.53;;;0.82;;
24153;SDS011;12312;53.362;-1.518;2023-12-20T14:02:03;4.95;;;0.95;;
24153;SDS011;12312;53.362;-1.518;2023-12-20T14:04:47;3.22;;;0.98;;
24153;SDS011;12312;53.362;-1.518;2023-12-20T14:07:31;1.67;;;0.98;;
24153;SDS011;12312;53.362;-1.518;2023-12-20T14:10:16;3.35;;;0.68;;
24153;SDS011;12312;53.362;-1.518;2023-12-20T14:13:00;5.25;;;0.90;;
24153;SDS011;12312;53.362;-1.518;2023-12-20T14:15:44;3.70;;;1.02;;
24153;SDS011;12312;53.362;-1.518;2023-12-20T14:18:29;1.50;;;0.80;;
24153;SDS011;12312;53.362;-1.518;2023-12-20T14:21:13;2.03;;;0.73;;
24153;SDS011;12312;53.362;-1.518;2023-12-20T14:23:58;1.17;;;0.70;;
24153;SDS011;12312;53.362;-1.518;2023-12-20T14:26:42;1.02;;;0.50;;
24153;SDS011;12312;53.362;-1.518;2023-12-20T14:29:26;1.63;;;0.52;;
24153;SDS011;12312;53.362;-1.518;2023-12-20T14:32:10;2.72;;;0.52;;
24153;SDS011;12312;53.362;-1.518;2023-12-20T14:34:54;1.17;;;0.52;;
24153;SDS011;12312;53.362;-1.518;2023-12-20T14:37:39;1.52;;;0.50;;
24153;SDS011;12312;53.362;-1.518;2023-12-20T14:40:24;2.47;;;0.50;;
24153;SDS011;12312;53.362;-1.518;2023-12-20T14:43:08;3.88;;;0.70;;
24153;SDS011;12312;53.362;-1.518;2023-12-20T14:45:53;1.23;;;0.50;;
24153;SDS011;12312;53.362;-1.518;2023-12-20T14:48:36;1.30;;;0.57;;
24153;SDS011;12312;53.362;-1.518;2023-12-20T14:51:20;0.98;;;0.35;;
24153;SDS011;12312;53.362;-1.518;2023-12-20T14:54:04;0.50;;;0.50;;
24153;SDS011;12312;53.362;-1.518;2023-12-20T14:56:53;2.97;;;0.70;;
24153;SDS011;12312;53.362;-1.518;2023-12-20T14:59:37;1.70;;;0.85;;
24153;SDS011;12312;53.362;-1.518;2023-12-20T15:02:21;1.88;;;1.00;;
24153;SDS011;12312;53.362;-1.518;2023-12-20T15:05:05;5.82;;;1.15;;
24153;SDS011;12312;53.362;-1.518;2023-12-20T15:07:50;3.45;;;0.98;;
24153;SDS011;12312;53.362;-1.518;2023-12-20T15:10:34;6.95;;;1.27;;
24153;SDS011;12312;53.362;-1.518;2023-12-20T15:13:18;7.53;;;1.33;;
24153;SDS011;12312;53.362;-1.518;2023-12-20T15:16:03;2.42;;;1.17;;
24153;SDS011;12312;53.362;-1.518;2023-12-20T15:18:47;4.25;;;1.20;;
24153;SDS011;12312;53.362;-1.518;2023-12-20T15:21:32;4.70;;;1.02;;
24153;SDS011;12312;53.362;-1.518;2023-12-20T15:24:18;9.10;;;2.45;;
24153;SDS011;12312;53.362;-1.518;2023-12-20T15:27:09;5.50;;;1.50;;
24153;SDS011;12312;53.362;-1.518;2023-12-20T15:29:53;4.95;;;1.90;;
24153;SDS011;12312;53.362;-1.518;2023-12-20T15:32:38;6.45;;;1.33;;
24153;SDS011;12312;53.362;-1.518;2023-12-20T15:35:22;2.95;;;1.23;;
24153;SDS011;12312;53.362;-1.518;2023-12-20T15:38:06;11.45;;;1.27;;
24153;SDS011;12312;53.362;-1.518;2023-12-20T15:40:50;9.60;;;1.63;;
24153;SDS011;12312;53.362;-1.518;2023-12-20T15:43:34;3.75;;;1.10;;
24153;SDS011;12312;53.362;-1.518;2023-12-20T15:49:04;3.17;;;1.13;;
24153;SDS011;12312;53.362;-1.518;2023-12-20T15:51:48;4.50;;;1.40;;
24153;SDS011;12312;53.362;-1.518;2023-12-20T15:54:34;5.38;;;0.82;;
24153;SDS011;12312;53.362;-1.518;2023-12-20T15:57:21;3.42;;;1.45;;
24153;SDS011;12312;53.362;-1.518;2023-12-20T16:00:05;5.20;;;1.25;;
24153;SDS011;12312;53.362;-1.518;2023-12-20T16:02:50;1.60;;;0.73;;
24153;SDS011;12312;53.362;-1.518;2023-12-20T16:05:34;4.00;;;1.00;;
24153;SDS011;12312;53.362;-1.518;2023-12-20T16:08:18;3.72;;;0.80;;
24153;SDS011;12312;53.362;-1.518;2023-12-20T16:11:02;4.25;;;0.77;;
24153;SDS011;12312;53.362;-1.518;2023-12-20T16:13:46;3.67;;;1.00;;
24153;SDS011;12312;53.362;-1.518;2023-12-20T16:16:30;3.78;;;0.80;;
24153;SDS011;12312;53.362;-1.518;2023-12-20T16:19:14;4.22;;;0.90;;
24153;SDS011;12312;53.362;-1.518;2023-12-20T16:21:58;2.58;;;0.60;;
24153;SDS011;12312;53.362;-1.518;2023-12-20T16:24:43;2.28;;;0.80;;